Time,TemperatureF,DewpointF,PressureIn,WindDirection,WindDirectionDegrees,WindSpeedMPH,WindSpeedGustMPH,Humidity,HourlyPrecipIn,Conditions,Clouds,dailyrainin,SoftwareType,DateUTC
2013-02-20 00:00:00,40.8,40.0,29.51,South,188,0.0,2.0,97,0.04,,,0.77,VWS V14.01,2013-02-20 05:00:00,
2013-02-20 00:05:00,40.7,39.9,29.52,South,188,0.0,0.0,97,0.01,,,0.00,VWS V14.01,2013-02-20 05:05:00,
2013-02-20 00:10:00,40.6,39.8,29.52,South,188,0.0,0.0,97,0.01,,,0.00,VWS V14.01,2013-02-20 05:10:00,
2013-02-20 00:15:00,40.4,39.6,29.51,South,188,0.0,1.0,97,0.01,,,0.00,VWS V14.01,2013-02-20 05:15:00,
2013-02-20 00:20:00,40.2,39.4,29.51,South,188,0.0,1.0,97,0.01,,,0.00,VWS V14.01,2013-02-20 05:20:00,
2013-02-20 00:25:00,40.0,39.2,29.51,South,188,0.0,1.0,97,0.01,,,0.00,VWS V14.01,2013-02-20 05:25:00,
2013-02-20 00:30:00,39.8,39.0,29.51,South,188,0.0,1.0,97,0.01,,,0.00,VWS V14.01,2013-02-20 05:30:00,
2013-02-20 00:35:00,39.7,38.9,29.51,South,188,0.0,2.0,97,0.00,,,0.00,VWS V14.01,2013-02-20 05:35:00,
2013-02-20 00:40:00,39.6,38.8,29.51,South,188,0.0,2.0,97,0.00,,,0.00,VWS V14.01,2013-02-20 05:40:00,
2013-02-20 00:45:00,39.6,38.8,29.50,South,188,0.0,2.0,97,0.00,,,0.00,VWS V14.01,2013-02-20 05:45:00,
2013-02-20 00:50:00,39.4,38.6,29.50,South,188,0.0,2.0,97,0.00,,,0.00,VWS V14.01,2013-02-20 05:50:00,
2013-02-20 00:55:00,39.1,38.3,29.50,South,188,0.0,2.0,97,0.00,,,0.00,VWS V14.01,2013-02-20 05:55:00,
2013-02-20 01:00:00,38.9,38.1,29.50,South,188,0.0,2.0,97,0.00,,,0.00,VWS V14.01,2013-02-20 06:00:00,
2013-02-20 01:05:00,38.9,38.1,29.49,South,188,0.0,1.0,97,0.00,,,0.00,VWS V14.01,2013-02-20 06:05:00,
2013-02-20 01:10:00,39.2,38.4,29.49,South,188,0.0,1.0,97,0.00,,,0.00,VWS V14.01,2013-02-20 06:10:00,
2013-02-20 01:15:00,39.4,38.6,29.50,South,188,0.0,1.0,97,0.00,,,0.00,VWS V14.01,2013-02-20 06:15:00,
2013-02-20 01:20:00,39.5,38.7,29.50,South,188,0.0,1.0,97,0.00,,,0.00,VWS V14.01,2013-02-20 06:20:00,
2013-02-20 01:25:00,39.5,38.7,29.50,South,188,0.0,1.0,97,0.00,,,0.00,VWS V14.01,2013-02-20 06:25:00,
2013-02-20 01:30:00,39.5,38.7,29.50,South,188,0.0,1.0,97,0.00,,,0.00,VWS V14.01,2013-02-20 06:30:00,
2013-02-20 01:35:00,39.3,38.5,29.50,South,188,0.0,1.0,97,0.00,,,0.00,VWS V14.01,2013-02-20 06:35:00,
2013-02-20 01:40:00,38.9,38.1,29.50,South,188,0.0,1.0,97,0.00,,,0.00,VWS V14.01,2013-02-20 06:40:00,
2013-02-20 01:45:00,38.6,37.8,29.50,South,188,1.0,1.0,97,0.00,,,0.00,VWS V14.01,2013-02-20 06:45:00,
2013-02-20 01:50:00,38.2,37.4,29.50,South,188,0.0,2.0,97,0.00,,,0.00,VWS V14.01,2013-02-20 06:50:00,
2013-02-20 01:55:00,38.0,37.2,29.49,South,188,1.0,2.0,97,0.00,,,0.00,VWS V14.01,2013-02-20 06:55:00,
2013-02-20 02:00:00,37.8,37.0,29.49,South,188,0.0,2.0,97,0.00,,,0.00,VWS V14.01,2013-02-20 07:00:00,
2013-02-20 02:05:00,37.6,36.8,29.50,South,188,1.0,2.0,97,0.00,,,0.00,VWS V14.01,2013-02-20 07:05:00,
2013-02-20 02:10:00,37.5,36.7,29.50,South,188,1.0,3.0,97,0.00,,,0.00,VWS V14.01,2013-02-20 07:10:00,
2013-02-20 02:15:00,37.5,36.7,29.51,South,188,1.0,3.0,97,0.00,,,0.00,VWS V14.01,2013-02-20 07:15:00,
2013-02-20 02:20:00,37.7,36.9,29.50,South,188,2.0,3.0,97,0.00,,,0.00,VWS V14.01,2013-02-20 07:20:00,
2013-02-20 02:25:00,37.7,36.9,29.50,South,188,0.0,3.0,97,0.00,,,0.00,VWS V14.01,2013-02-20 07:25:00,
2013-02-20 02:30:00,37.7,36.9,29.50,South,188,0.0,3.0,97,0.00,,,0.00,VWS V14.01,2013-02-20 07:30:00,
2013-02-20 02:35:00,37.8,37.0,29.50,South,188,0.0,3.0,97,0.00,,,0.00,VWS V14.01,2013-02-20 07:35:00,
2013-02-20 02:40:00,38.3,37.8,29.50,WSW,250,3.0,4.0,98,0.00,,,0.00,VWS V14.01,2013-02-20 07:40:00,
2013-02-20 02:45:00,39.1,38.6,29.50,WSW,254,2.0,4.0,98,0.00,,,0.00,VWS V14.01,2013-02-20 07:45:00,
2013-02-20 02:50:00,39.5,39.0,29.50,WSW,258,2.0,4.0,98,0.00,,,0.00,VWS V14.01,2013-02-20 07:50:00,
2013-02-20 02:55:00,39.6,39.1,29.50,West,269,1.0,4.0,98,0.00,,,0.00,VWS V14.01,2013-02-20 07:55:00,
2013-02-20 03:00:00,39.6,39.1,29.50,West,263,1.0,4.0,98,0.00,,,0.00,VWS V14.01,2013-02-20 08:00:00,
2013-02-20 03:05:00,39.4,38.9,29.50,West,263,0.0,2.0,98,0.00,,,0.00,VWS V14.01,2013-02-20 08:05:00,
2013-02-20 03:10:00,39.4,38.9,29.50,West,263,0.0,4.0,98,0.00,,,0.00,VWS V14.01,2013-02-20 08:10:00,
2013-02-20 03:15:00,39.4,38.9,29.50,WSW,242,0.0,4.0,98,0.00,,,0.00,VWS V14.01,2013-02-20 08:15:00,
2013-02-20 03:20:00,39.4,38.6,29.50,WSW,253,1.0,4.0,97,0.00,,,0.00,VWS V14.01,2013-02-20 08:20:00,
2013-02-20 03:25:00,39.2,38.4,29.50,West,274,0.0,4.0,97,0.00,,,0.00,VWS V14.01,2013-02-20 08:25:00,
2013-02-20 03:30:00,39.0,38.2,29.50,West,274,1.0,4.0,97,0.00,,,0.00,VWS V14.01,2013-02-20 08:30:00,
2013-02-20 03:35:00,38.8,38.0,29.50,West,274,0.0,3.0,97,0.00,,,0.00,VWS V14.01,2013-02-20 08:35:00,
2013-02-20 03:40:00,38.6,37.8,29.50,WSW,248,2.0,5.0,97,0.00,,,0.00,VWS V14.01,2013-02-20 08:40:00,
2013-02-20 03:45:00,38.6,37.8,29.49,WSW,247,2.0,5.0,97,0.00,,,0.00,VWS V14.01,2013-02-20 08:45:00,
2013-02-20 03:50:00,38.3,37.5,29.49,West,265,4.0,5.0,97,0.00,,,0.00,VWS V14.01,2013-02-20 08:50:00,
2013-02-20 03:55:00,38.1,37.3,29.50,WSW,254,1.0,9.0,97,0.00,,,0.00,VWS V14.01,2013-02-20 08:55:00,
2013-02-20 04:00:00,37.9,37.1,29.50,West,269,0.0,9.0,97,0.00,,,0.00,VWS V14.01,2013-02-20 09:00:00,
2013-02-20 04:05:00,37.7,36.9,29.50,WSW,254,3.0,6.0,97,0.00,,,0.00,VWS V14.01,2013-02-20 09:05:00,
2013-02-20 04:10:00,37.5,36.7,29.50,West,279,1.0,6.0,97,0.00,,,0.00,VWS V14.01,2013-02-20 09:10:00,
2013-02-20 04:15:00,37.3,36.5,29.50,WNW,292,1.0,6.0,97,0.00,,,0.00,VWS V14.01,2013-02-20 09:15:00,
2013-02-20 04:20:00,37.2,36.4,29.49,WNW,289,4.0,6.0,97,0.00,,,0.00,VWS V14.01,2013-02-20 09:20:00,
2013-02-20 04:25:00,37.0,36.2,29.50,West,277,1.0,6.0,97,0.00,,,0.00,VWS V14.01,2013-02-20 09:25:00,
2013-02-20 04:30:00,36.9,36.1,29.50,West,277,1.0,7.0,97,0.00,,,0.00,VWS V14.01,2013-02-20 09:30:00,
2013-02-20 04:35:00,36.9,36.1,29.50,West,266,4.0,5.0,97,0.00,,,0.00,VWS V14.01,2013-02-20 09:35:00,
2013-02-20 04:40:00,36.9,35.9,29.50,WSW,239,3.0,5.0,96,0.00,,,0.00,VWS V14.01,2013-02-20 09:40:00,
2013-02-20 04:45:00,36.9,35.9,29.50,WNW,285,0.0,5.0,96,0.00,,,0.00,VWS V14.01,2013-02-20 09:45:00,
2013-02-20 04:50:00,36.8,35.8,29.50,WNW,283,4.0,5.0,96,0.00,,,0.00,VWS V14.01,2013-02-20 09:50:00,
2013-02-20 04:55:00,36.8,35.8,29.50,WNW,300,2.0,7.0,96,0.00,,,0.00,VWS V14.01,2013-02-20 09:55:00,
2013-02-20 05:00:00,36.6,35.6,29.50,WNW,295,3.0,7.0,96,0.00,,,0.00,VWS V14.01,2013-02-20 10:00:00,
2013-02-20 05:05:00,36.6,35.6,29.50,West,281,6.0,6.0,96,0.00,,,0.00,VWS V14.01,2013-02-20 10:05:00,
2013-02-20 05:10:00,36.6,35.6,29.51,West,275,2.0,6.0,96,0.00,,,0.00,VWS V14.01,2013-02-20 10:10:00,
2013-02-20 05:15:00,36.6,35.3,29.51,NW,313,3.0,7.0,95,0.00,,,0.00,VWS V14.01,2013-02-20 10:15:00,
2013-02-20 05:20:00,36.7,35.4,29.50,WSW,257,3.0,7.0,95,0.00,,,0.00,VWS V14.01,2013-02-20 10:20:00,
2013-02-20 05:25:00,36.7,35.4,29.51,West,276,4.0,7.0,95,0.00,,,0.00,VWS V14.01,2013-02-20 10:25:00,
2013-02-20 05:30:00,36.6,35.3,29.51,West,275,2.0,7.0,95,0.00,,,0.00,VWS V14.01,2013-02-20 10:30:00,
2013-02-20 05:35:00,36.6,35.3,29.51,West,273,6.0,7.0,95,0.00,,,0.00,VWS V14.01,2013-02-20 10:35:00,
2013-02-20 05:40:00,36.5,34.9,29.52,WNW,282,2.0,9.0,94,0.00,,,0.00,VWS V14.01,2013-02-20 10:40:00,
2013-02-20 05:45:00,36.4,34.6,29.52,West,272,4.0,9.0,93,0.00,,,0.00,VWS V14.01,2013-02-20 10:45:00,
2013-02-20 05:50:00,36.3,34.5,29.52,WNW,290,4.0,9.0,93,0.00,,,0.00,VWS V14.01,2013-02-20 10:50:00,
2013-02-20 05:55:00,36.1,34.3,29.52,WNW,299,3.0,9.0,93,0.00,,,0.00,VWS V14.01,2013-02-20 10:55:00,
2013-02-20 06:00:00,35.9,33.8,29.53,West,279,5.0,9.0,92,0.00,,,0.00,VWS V14.01,2013-02-20 11:00:00,
2013-02-20 06:05:00,35.5,33.4,29.53,West,259,3.0,8.0,92,0.00,,,0.00,VWS V14.01,2013-02-20 11:05:00,
2013-02-20 06:10:00,35.2,32.8,29.53,WNW,297,3.0,12.0,91,0.00,,,0.00,VWS V14.01,2013-02-20 11:10:00,
2013-02-20 06:15:00,34.9,32.5,29.54,West,274,6.0,12.0,91,0.00,,,0.00,VWS V14.01,2013-02-20 11:15:00,
2013-02-20 06:20:00,34.8,31.9,29.54,West,276,7.0,12.0,89,0.00,,,0.00,VWS V14.01,2013-02-20 11:20:00,
2013-02-20 06:25:00,34.7,31.8,29.54,West,281,9.0,12.0,89,0.00,,,0.00,VWS V14.01,2013-02-20 11:25:00,
2013-02-20 06:30:00,34.6,31.4,29.54,West,264,5.0,13.0,88,0.00,,,0.00,VWS V14.01,2013-02-20 11:30:00,
2013-02-20 06:35:00,34.4,31.2,29.54,West,281,5.0,8.0,88,0.00,,,0.00,VWS V14.01,2013-02-20 11:35:00,
2013-02-20 06:40:00,34.2,30.7,29.54,West,268,7.0,10.0,87,0.00,,,0.00,VWS V14.01,2013-02-20 11:40:00,
2013-02-20 06:45:00,34.1,30.6,29.55,NW,312,3.0,10.0,87,0.00,,,0.00,VWS V14.01,2013-02-20 11:45:00,
2013-02-20 06:50:00,34.1,30.6,29.55,WSW,257,6.0,10.0,87,0.00,,,0.00,VWS V14.01,2013-02-20 11:50:00,
2013-02-20 06:55:00,34.0,30.8,29.55,WNW,295,7.0,10.0,88,0.00,,,0.00,VWS V14.01,2013-02-20 11:55:00,
2013-02-20 07:00:00,33.9,30.5,29.55,West,263,5.0,11.0,87,0.00,,,0.00,VWS V14.01,2013-02-20 12:00:00,
2013-02-20 07:05:00,33.8,30.4,29.55,West,259,4.0,8.0,87,0.00,,,0.00,VWS V14.01,2013-02-20 12:05:00,
2013-02-20 07:10:00,33.7,30.2,29.55,WNW,291,5.0,8.0,87,0.00,,,0.00,VWS V14.01,2013-02-20 12:10:00,
2013-02-20 07:15:00,33.7,30.0,29.56,West,277,4.0,8.0,86,0.00,,,0.00,VWS V14.01,2013-02-20 12:15:00,
2013-02-20 07:20:00,33.7,30.0,29.56,WNW,302,4.0,8.0,86,0.00,,,0.00,VWS V14.01,2013-02-20 12:20:00,
2013-02-20 07:25:00,33.7,30.0,29.56,West,276,3.0,9.0,86,0.00,,,0.00,VWS V14.01,2013-02-20 12:25:00,
2013-02-20 07:30:00,33.7,29.7,29.57,WSW,244,6.0,10.0,85,0.00,,,0.00,VWS V14.01,2013-02-20 12:30:00,
2013-02-20 07:35:00,33.7,29.4,29.57,West,261,6.0,8.0,84,0.00,,,0.00,VWS V14.01,2013-02-20 12:35:00,
2013-02-20 07:40:00,33.7,29.4,29.57,West,278,4.0,8.0,84,0.00,,,0.00,VWS V14.01,2013-02-20 12:40:00,
2013-02-20 07:45:00,33.7,29.1,29.57,WNW,300,4.0,9.0,83,0.00,,,0.00,VWS V14.01,2013-02-20 12:45:00,
2013-02-20 07:50:00,33.7,29.1,29.57,WNW,291,5.0,9.0,83,0.00,,,0.00,VWS V14.01,2013-02-20 12:50:00,
2013-02-20 07:55:00,33.7,29.1,29.58,WSW,240,7.0,9.0,83,0.00,,,0.00,VWS V14.01,2013-02-20 12:55:00,
2013-02-20 08:00:00,33.8,28.9,29.58,WNW,303,4.0,9.0,82,0.00,,,0.00,VWS V14.01,2013-02-20 13:00:00,
2013-02-20 08:05:00,33.8,28.0,29.58,WSW,257,9.0,12.0,79,0.00,,,0.00,VWS V14.01,2013-02-20 13:05:00,
2013-02-20 08:10:00,33.8,27.7,29.59,West,274,5.0,12.0,78,0.00,,,0.00,VWS V14.01,2013-02-20 13:10:00,
2013-02-20 08:15:00,33.8,27.0,29.59,WNW,283,7.0,12.0,76,0.00,,,0.00,VWS V14.01,2013-02-20 13:15:00,
2013-02-20 08:20:00,33.8,26.7,29.59,NW,304,5.0,16.0,75,0.00,,,0.00,VWS V14.01,2013-02-20 13:20:00,
2013-02-20 08:25:00,33.8,26.7,29.59,West,265,9.0,16.0,75,0.00,,,0.00,VWS V14.01,2013-02-20 13:25:00,
2013-02-20 08:30:00,33.8,26.4,29.59,West,275,5.0,16.0,74,0.00,,,0.00,VWS V14.01,2013-02-20 13:30:00,
2013-02-20 08:35:00,33.8,26.4,29.59,West,275,2.0,12.0,74,0.00,,,0.00,VWS V14.01,2013-02-20 13:35:00,
2013-02-20 08:40:00,34.0,26.6,29.59,West,281,8.0,12.0,74,0.00,,,0.00,VWS V14.01,2013-02-20 13:40:00,
2013-02-20 08:46:00,34.2,26.8,29.60,West,279,10.0,12.0,74,0.00,,,0.00,VWS V14.01,2013-02-20 13:46:00,
2013-02-20 08:51:00,34.1,25.4,29.60,WSW,248,6.0,12.0,70,0.00,,,0.00,VWS V14.01,2013-02-20 13:51:00,
2013-02-20 08:56:00,34.0,25.6,29.60,West,281,4.0,12.0,71,0.00,,,0.00,VWS V14.01,2013-02-20 13:56:00,
2013-02-20 09:00:00,35.9,24.5,29.61,West,268,7.0,15.0,63,0.00,,,0.00,VWS V14.01,2013-02-20 14:00:00,
2013-02-20 09:01:00,33.7,24.6,29.60,West,277,5.0,15.0,69,0.00,,,0.00,VWS V14.01,2013-02-20 14:01:00,
2013-02-20 09:06:00,33.5,24.1,29.60,West,281,6.0,12.0,68,0.00,,,0.00,VWS V14.01,2013-02-20 14:06:00,
2013-02-20 09:11:00,33.4,24.0,29.60,West,274,5.0,15.0,68,0.00,,,0.00,VWS V14.01,2013-02-20 14:11:00,
2013-02-20 09:16:00,33.4,24.0,29.60,West,274,5.0,15.0,68,0.00,,,0.00,VWS V14.01,2013-02-20 14:16:00,
2013-02-20 09:21:00,33.5,23.7,29.60,WNW,282,10.0,15.0,67,0.00,,,0.00,VWS V14.01,2013-02-20 14:21:00,
2013-02-20 09:26:00,33.3,23.2,29.60,West,271,10.0,15.0,66,0.00,,,0.00,VWS V14.01,2013-02-20 14:26:00,
2013-02-20 09:30:00,36.6,24.0,29.60,West,275,3.0,13.0,60,0.00,,,0.00,VWS V14.01,2013-02-20 14:30:00,
2013-02-20 09:31:00,33.8,23.7,29.60,WNW,287,3.0,15.0,66,0.00,,,0.00,VWS V14.01,2013-02-20 14:31:00,
2013-02-20 09:35:00,34.2,23.7,29.60,West,271,5.0,15.0,65,0.00,,,0.00,VWS V14.01,2013-02-20 14:35:00,
2013-02-20 09:40:00,34.5,24.0,29.60,West,274,5.0,15.0,65,0.00,,,0.00,VWS V14.01,2013-02-20 14:40:00,
2013-02-20 09:45:00,35.0,24.1,29.60,WNW,287,8.0,15.0,64,0.00,,,0.00,VWS V14.01,2013-02-20 14:45:00,
2013-02-20 09:50:00,35.4,24.5,29.61,West,275,7.0,15.0,64,0.00,,,0.00,VWS V14.01,2013-02-20 14:50:00,
2013-02-20 09:55:00,35.5,23.8,29.61,West,275,5.0,15.0,62,0.00,,,0.00,VWS V14.01,2013-02-20 14:55:00,
2013-02-20 10:00:00,36.5,21.9,29.60,WNW,298,7.0,14.0,55,0.00,,,0.00,VWS V14.01,2013-02-20 15:00:00,
2013-02-20 10:01:00,35.7,24.0,29.61,West,270,2.0,15.0,62,0.00,,,0.00,VWS V14.01,2013-02-20 15:01:00,
2013-02-20 10:06:00,36.0,24.3,29.61,West,276,3.0,10.0,62,0.00,,,0.00,VWS V14.01,2013-02-20 15:06:00,
2013-02-20 10:11:00,35.9,23.0,29.61,West,277,2.0,11.0,59,0.00,,,0.00,VWS V14.01,2013-02-20 15:11:00,
2013-02-20 10:16:00,35.9,23.0,29.61,West,273,4.0,12.0,59,0.00,,,0.00,VWS V14.01,2013-02-20 15:16:00,
2013-02-20 10:21:00,36.0,23.5,29.60,NW,309,5.0,12.0,60,0.00,,,0.00,VWS V14.01,2013-02-20 15:21:00,
2013-02-20 10:26:00,36.1,24.0,29.60,NW,311,5.0,13.0,61,0.00,,,0.00,VWS V14.01,2013-02-20 15:26:00,
2013-02-20 10:30:00,36.8,21.7,29.60,West,260,4.0,18.0,54,0.00,,,0.00,VWS V14.01,2013-02-20 15:30:00,
2013-02-20 10:31:00,36.6,24.8,29.60,West,261,7.0,13.0,62,0.00,,,0.00,VWS V14.01,2013-02-20 15:31:00,
2013-02-20 10:36:00,36.7,23.7,29.60,WSW,258,8.0,12.0,59,0.00,,,0.00,VWS V14.01,2013-02-20 15:36:00,
2013-02-20 10:41:00,36.2,22.0,29.61,West,272,9.0,14.0,56,0.00,,,0.00,VWS V14.01,2013-02-20 15:41:00,
2013-02-20 10:46:00,36.1,22.8,29.60,West,269,5.0,14.0,58,0.00,,,0.00,VWS V14.01,2013-02-20 15:46:00,
2013-02-20 10:51:00,36.3,23.0,29.60,WNW,283,6.0,14.0,58,0.00,,,0.00,VWS V14.01,2013-02-20 15:51:00,
2013-02-20 10:56:00,36.5,22.7,29.60,West,275,3.0,14.0,57,0.00,,,0.00,VWS V14.01,2013-02-20 15:56:00,
2013-02-20 11:00:00,36.8,21.3,29.59,WSW,252,6.0,16.0,53,0.00,,,0.00,VWS V14.01,2013-02-20 16:00:00,
2013-02-20 11:01:00,36.6,22.4,29.61,West,273,6.0,14.0,56,0.00,,,0.00,VWS V14.01,2013-02-20 16:01:00,
2013-02-20 11:06:00,36.4,21.8,29.60,West,259,10.0,12.0,55,0.00,,,0.00,VWS V14.01,2013-02-20 16:06:00,
2013-02-20 11:11:00,36.2,21.2,29.60,WSW,256,6.0,13.0,54,0.00,,,0.00,VWS V14.01,2013-02-20 16:11:00,
2013-02-20 11:16:00,36.2,21.6,29.60,West,277,3.0,14.0,55,0.00,,,0.00,VWS V14.01,2013-02-20 16:16:00,
2013-02-20 11:21:00,36.8,22.2,29.60,West,267,6.0,14.0,55,0.00,,,0.00,VWS V14.01,2013-02-20 16:21:00,
2013-02-20 11:26:00,37.0,23.2,29.60,NW,323,3.0,14.0,57,0.00,,,0.00,VWS V14.01,2013-02-20 16:26:00,
2013-02-20 11:30:00,35.9,19.5,29.58,NW,319,4.0,15.0,51,0.00,,,0.00,VWS V14.01,2013-02-20 16:30:00,
2013-02-20 11:31:00,36.9,21.8,29.60,NW,304,6.0,18.0,54,0.00,,,0.00,VWS V14.01,2013-02-20 16:31:00,
2013-02-20 11:36:00,37.0,22.8,29.60,NNE,31,2.0,8.0,56,0.00,,,0.00,VWS V14.01,2013-02-20 16:36:00,
2013-02-20 11:41:00,37.3,22.6,29.60,WSW,257,9.0,11.0,55,0.00,,,0.00,VWS V14.01,2013-02-20 16:41:00,
2013-02-20 11:46:00,36.5,20.6,29.60,West,267,13.0,16.0,52,0.00,,,0.00,VWS V14.01,2013-02-20 16:46:00,
2013-02-20 11:51:00,36.4,21.4,29.60,West,268,6.0,16.0,54,0.00,,,0.00,VWS V14.01,2013-02-20 16:51:00,
2013-02-20 11:56:00,37.1,22.0,29.59,West,271,7.0,16.0,54,0.00,,,0.00,VWS V14.01,2013-02-20 16:56:00,
2013-02-20 12:00:00,35.0,19.2,29.58,West,272,8.0,17.0,52,0.00,,,0.00,VWS V14.01,2013-02-20 17:00:00,
2013-02-20 12:01:00,36.8,21.3,29.59,West,274,6.0,16.0,53,0.00,,,0.00,VWS V14.01,2013-02-20 17:01:00,
2013-02-20 12:06:00,37.1,21.6,29.59,WNW,289,5.0,15.0,53,0.00,,,0.00,VWS V14.01,2013-02-20 17:06:00,
2013-02-20 12:11:00,37.3,21.3,29.59,West,264,3.0,15.0,52,0.00,,,0.00,VWS V14.01,2013-02-20 17:11:00,
2013-02-20 12:16:00,37.4,20.9,29.59,WSW,242,8.0,15.0,51,0.00,,,0.00,VWS V14.01,2013-02-20 17:16:00,
2013-02-20 12:21:00,37.0,21.5,29.58,NNW,340,7.0,15.0,53,0.00,,,0.00,VWS V14.01,2013-02-20 17:21:00,
2013-02-20 12:26:00,36.9,20.5,29.58,West,272,7.0,15.0,51,0.00,,,0.00,VWS V14.01,2013-02-20 17:26:00,
2013-02-20 12:30:00,35.6,17.9,29.58,WSW,254,5.0,18.0,48,0.01,,,0.01,VWS V14.01,2013-02-20 17:30:00,
2013-02-20 12:31:00,36.2,19.8,29.58,WSW,254,15.0,15.0,51,0.00,,,0.00,VWS V14.01,2013-02-20 17:31:00,
2013-02-20 12:36:00,36.1,20.2,29.58,WSW,255,12.0,12.0,52,0.00,,,0.00,VWS V14.01,2013-02-20 17:36:00,
2013-02-20 12:41:00,36.6,20.2,29.58,West,267,5.0,17.0,51,0.00,,,0.00,VWS V14.01,2013-02-20 17:41:00,
2013-02-20 12:46:00,36.6,19.3,29.58,NW,315,8.0,17.0,49,0.00,,,0.00,VWS V14.01,2013-02-20 17:46:00,
2013-02-20 12:51:00,35.7,18.4,29.58,West,277,4.0,17.0,49,0.00,,,0.00,VWS V14.01,2013-02-20 17:51:00,
2013-02-20 12:56:00,35.2,19.4,29.58,West,276,8.0,17.0,52,0.00,,,0.00,VWS V14.01,2013-02-20 17:56:00,
2013-02-20 13:00:00,36.9,18.6,29.58,West,278,4.0,14.0,47,0.01,,,0.01,VWS V14.01,2013-02-20 18:00:00,
2013-02-20 13:01:00,35.0,19.2,29.58,West,259,8.0,17.0,52,0.00,,,0.00,VWS V14.01,2013-02-20 18:01:00,
2013-02-20 13:06:00,35.2,19.4,29.58,WNW,296,6.0,8.0,52,0.00,,,0.00,VWS V14.01,2013-02-20 18:06:00,
2013-02-20 13:11:00,35.5,18.7,29.58,WSW,250,7.0,18.0,50,0.00,,,0.00,VWS V14.01,2013-02-20 18:11:00,
2013-02-20 13:16:00,35.7,19.4,29.58,NW,311,9.0,18.0,51,0.00,,,0.00,VWS V14.01,2013-02-20 18:16:00,
2013-02-20 13:21:00,36.2,20.3,29.58,West,278,5.0,18.0,52,0.01,,,0.01,VWS V14.01,2013-02-20 18:21:00,
2013-02-20 13:26:00,36.8,19.5,29.58,WNW,284,13.0,18.0,49,0.01,,,0.01,VWS V14.01,2013-02-20 18:26:00,
2013-02-20 13:30:00,35.4,18.2,29.58,West,261,10.0,15.0,49,0.01,,,0.01,VWS V14.01,2013-02-20 18:30:00,
2013-02-20 13:31:00,35.9,18.6,29.58,West,276,6.0,18.0,49,0.01,,,0.01,VWS V14.01,2013-02-20 18:31:00,
2013-02-20 13:36:00,35.1,17.9,29.58,West,276,5.0,12.0,49,0.01,,,0.01,VWS V14.01,2013-02-20 18:36:00,
2013-02-20 13:41:00,35.3,19.0,29.58,West,262,5.0,12.0,51,0.01,,,0.01,VWS V14.01,2013-02-20 18:41:00,
2013-02-20 13:46:00,36.0,19.6,29.58,West,273,4.0,12.0,51,0.01,,,0.01,VWS V14.01,2013-02-20 18:46:00,
2013-02-20 13:51:00,36.5,20.1,29.58,West,281,5.0,12.0,51,0.01,,,0.01,VWS V14.01,2013-02-20 18:51:00,
2013-02-20 13:56:00,36.8,19.5,29.57,West,277,4.0,12.0,49,0.01,,,0.01,VWS V14.01,2013-02-20 18:56:00,
2013-02-20 14:00:00,34.9,16.2,29.59,West,276,8.0,19.0,46,0.00,,,0.01,VWS V14.01,2013-02-20 19:00:00,
2013-02-20 14:01:00,37.2,19.3,29.57,West,271,8.0,14.0,48,0.01,,,0.01,VWS V14.01,2013-02-20 19:01:00,
2013-02-20 14:06:00,36.2,18.4,29.58,NW,309,4.0,8.0,48,0.01,,,0.01,VWS V14.01,2013-02-20 19:06:00,
2013-02-20 14:11:00,35.2,18.0,29.58,WNW,293,4.0,11.0,49,0.01,,,0.01,VWS V14.01,2013-02-20 19:11:00,
2013-02-20 14:16:00,35.0,17.3,29.58,WNW,283,5.0,15.0,48,0.01,,,0.01,VWS V14.01,2013-02-20 19:16:00,
2013-02-20 14:21:00,35.2,18.0,29.58,NNW,327,6.0,15.0,49,0.01,,,0.01,VWS V14.01,2013-02-20 19:21:00,
2013-02-20 14:26:00,34.9,17.7,29.58,West,275,4.0,15.0,49,0.01,,,0.01,VWS V14.01,2013-02-20 19:26:00,
2013-02-20 14:30:00,34.7,16.5,29.59,SE,132,5.0,13.0,47,0.00,,,0.01,VWS V14.01,2013-02-20 19:30:00,
2013-02-20 14:31:00,35.2,17.5,29.58,WNW,288,5.0,15.0,48,0.01,,,0.01,VWS V14.01,2013-02-20 19:31:00,
2013-02-20 14:36:00,35.8,17.1,29.58,WSW,257,8.0,12.0,46,0.00,,,0.01,VWS V14.01,2013-02-20 19:36:00,
2013-02-20 14:41:00,36.0,17.2,29.59,WSW,254,12.0,16.0,46,0.00,,,0.01,VWS V14.01,2013-02-20 19:41:00,
2013-02-20 14:46:00,36.0,17.2,29.59,WNW,290,4.0,16.0,46,0.00,,,0.01,VWS V14.01,2013-02-20 19:46:00,
2013-02-20 14:51:00,35.8,17.1,29.59,West,276,13.0,19.0,46,0.00,,,0.01,VWS V14.01,2013-02-20 19:51:00,
2013-02-20 14:56:00,35.4,16.7,29.59,West,261,4.0,19.0,46,0.00,,,0.01,VWS V14.01,2013-02-20 19:56:00,
2013-02-20 15:00:00,34.6,15.4,29.60,West,280,5.0,17.0,45,0.00,,,0.01,VWS V14.01,2013-02-20 20:00:00,
2013-02-20 15:01:00,35.0,16.8,29.59,WSW,251,7.0,19.0,47,0.00,,,0.01,VWS V14.01,2013-02-20 20:01:00,
2013-02-20 15:06:00,34.5,16.4,29.59,West,264,5.0,12.0,47,0.00,,,0.01,VWS V14.01,2013-02-20 20:06:00,
2013-02-20 15:11:00,34.3,16.7,29.59,NW,319,6.0,12.0,48,0.00,,,0.01,VWS V14.01,2013-02-20 20:11:00,
2013-02-20 15:16:00,34.6,17.4,29.59,WSW,239,5.0,12.0,49,0.00,,,0.01,VWS V14.01,2013-02-20 20:16:00,
2013-02-20 15:21:00,35.1,17.9,29.59,West,261,11.0,13.0,49,0.00,,,0.01,VWS V14.01,2013-02-20 20:21:00,
2013-02-20 15:26:00,35.1,16.4,29.59,WSW,244,7.0,13.0,46,0.00,,,0.01,VWS V14.01,2013-02-20 20:26:00,
2013-02-20 15:30:00,33.7,14.6,29.61,West,266,14.0,18.0,45,0.00,,,0.01,VWS V14.01,2013-02-20 20:30:00,
2013-02-20 15:31:00,34.8,16.6,29.60,West,279,5.0,13.0,47,0.00,,,0.01,VWS V14.01,2013-02-20 20:31:00,
2013-02-20 15:36:00,34.6,16.5,29.60,West,281,4.0,10.0,47,0.00,,,0.01,VWS V14.01,2013-02-20 20:36:00,
2013-02-20 15:41:00,34.7,16.5,29.60,West,279,5.0,12.0,47,0.00,,,0.01,VWS V14.01,2013-02-20 20:41:00,
2013-02-20 15:46:00,34.7,15.6,29.60,North,350,8.0,12.0,45,0.00,,,0.01,VWS V14.01,2013-02-20 20:46:00,
2013-02-20 15:51:00,34.7,15.6,29.60,WSW,257,6.0,12.0,45,0.00,,,0.01,VWS V14.01,2013-02-20 20:51:00,
2013-02-20 15:56:00,34.6,16.0,29.60,West,271,6.0,12.0,46,0.00,,,0.01,VWS V14.01,2013-02-20 20:56:00,
2013-02-20 16:00:00,32.3,14.3,29.61,West,263,7.0,15.0,47,0.00,,,0.01,VWS V14.01,2013-02-20 21:00:00,
2013-02-20 16:01:00,34.6,15.5,29.60,WSW,246,6.0,17.0,45,0.00,,,0.01,VWS V14.01,2013-02-20 21:01:00,
2013-02-20 16:06:00,34.7,16.0,29.60,West,271,11.0,11.0,46,0.00,,,0.01,VWS V14.01,2013-02-20 21:06:00,
2013-02-20 16:11:00,34.7,16.0,29.60,West,279,5.0,12.0,46,0.00,,,0.01,VWS V14.01,2013-02-20 21:11:00,
2013-02-20 16:16:00,34.7,16.0,29.61,WSW,250,5.0,12.0,46,0.00,,,0.01,VWS V14.01,2013-02-20 21:16:00,
2013-02-20 16:21:00,34.6,16.0,29.61,West,265,5.0,12.0,46,0.00,,,0.01,VWS V14.01,2013-02-20 21:21:00,
2013-02-20 16:26:00,34.3,15.7,29.61,West,273,4.0,12.0,46,0.00,,,0.01,VWS V14.01,2013-02-20 21:26:00,
2013-02-20 16:30:00,31.6,15.1,29.62,WNW,302,6.0,16.0,50,0.00,,,0.01,VWS V14.01,2013-02-20 21:30:00,
2013-02-20 16:31:00,33.9,15.8,29.61,West,279,14.0,18.0,47,0.00,,,0.01,VWS V14.01,2013-02-20 21:31:00,
2013-02-20 16:36:00,33.4,14.4,29.61,SSW,213,9.0,14.0,45,0.00,,,0.01,VWS V14.01,2013-02-20 21:36:00,
2013-02-20 16:41:00,33.1,14.1,29.61,West,281,4.0,15.0,45,0.00,,,0.01,VWS V14.01,2013-02-20 21:41:00,
2013-02-20 16:46:00,32.8,13.8,29.61,WNW,286,8.0,15.0,45,0.00,,,0.01,VWS V14.01,2013-02-20 21:46:00,
2013-02-20 16:51:00,32.6,14.1,29.61,West,261,4.0,15.0,46,0.00,,,0.01,VWS V14.01,2013-02-20 21:51:00,
2013-02-20 16:56:00,32.5,14.5,29.61,WNW,299,3.0,15.0,47,0.00,,,0.01,VWS V14.01,2013-02-20 21:56:00,
2013-02-20 17:00:00,30.7,13.8,29.64,WSW,255,7.0,20.0,49,0.00,,,0.01,VWS V14.01,2013-02-20 22:00:00,
2013-02-20 17:01:00,32.3,14.3,29.61,WSW,255,7.0,15.0,47,0.00,,,0.01,VWS V14.01,2013-02-20 22:01:00,
2013-02-20 17:06:00,32.2,14.7,29.61,WNW,282,4.0,9.0,48,0.00,,,0.01,VWS V14.01,2013-02-20 22:06:00,
2013-02-20 17:11:00,32.1,14.6,29.62,West,276,1.0,11.0,48,0.00,,,0.01,VWS V14.01,2013-02-20 22:11:00,
2013-02-20 17:16:00,32.1,15.1,29.62,West,259,1.0,11.0,49,0.00,,,0.01,VWS V14.01,2013-02-20 22:16:00,
2013-02-20 17:21:00,31.9,14.9,29.61,West,279,7.0,11.0,49,0.00,,,0.01,VWS V14.01,2013-02-20 22:21:00,
2013-02-20 17:26:00,31.7,14.7,29.62,WNW,301,3.0,16.0,49,0.00,,,0.01,VWS V14.01,2013-02-20 22:26:00,
2013-02-20 17:30:00,30.2,13.8,29.65,West,272,3.0,19.0,50,0.00,,,0.01,VWS V14.01,2013-02-20 22:30:00,
2013-02-20 17:31:00,31.6,14.6,29.62,West,276,3.0,16.0,49,0.00,,,0.01,VWS V14.01,2013-02-20 22:31:00,
2013-02-20 17:36:00,31.5,14.6,29.63,West,281,7.0,11.0,49,0.00,,,0.01,VWS V14.01,2013-02-20 22:36:00,
2013-02-20 17:41:00,31.3,14.4,29.63,WNW,296,6.0,12.0,49,0.00,,,0.01,VWS V14.01,2013-02-20 22:41:00,
2013-02-20 17:46:00,31.1,14.2,29.63,NW,306,4.0,13.0,49,0.00,,,0.01,VWS V14.01,2013-02-20 22:46:00,
2013-02-20 17:51:00,31.0,13.6,29.63,WSW,256,4.0,14.0,48,0.00,,,0.01,VWS V14.01,2013-02-20 22:51:00,
2013-02-20 17:56:00,30.8,13.9,29.64,NW,322,6.0,20.0,49,0.00,,,0.01,VWS V14.01,2013-02-20 22:56:00,
2013-02-20 18:00:00,29.6,14.1,29.66,NW,320,3.0,11.0,52,0.00,,,0.01,VWS V14.01,2013-02-20 23:00:00,
2013-02-20 18:01:00,30.7,13.4,29.64,West,270,5.0,20.0,48,0.00,,,0.01,VWS V14.01,2013-02-20 23:01:00,
2013-02-20 18:06:00,30.6,13.7,29.64,West,268,6.0,12.0,49,0.00,,,0.01,VWS V14.01,2013-02-20 23:06:00,
2013-02-20 18:11:00,30.4,13.5,29.64,West,281,5.0,12.0,49,0.00,,,0.01,VWS V14.01,2013-02-20 23:11:00,
2013-02-20 18:16:00,30.4,13.5,29.65,West,281,6.0,19.0,49,0.00,,,0.01,VWS V14.01,2013-02-20 23:16:00,
2013-02-20 18:21:00,30.4,13.5,29.65,WNW,295,3.0,19.0,49,0.00,,,0.01,VWS V14.01,2013-02-20 23:21:00,
2013-02-20 18:26:00,30.3,13.9,29.65,West,269,3.0,19.0,50,0.00,,,0.01,VWS V14.01,2013-02-20 23:26:00,
2013-02-20 18:30:00,29.1,12.3,29.66,West,268,2.0,17.0,49,0.00,,,0.01,VWS V14.01,2013-02-20 23:30:00,
2013-02-20 18:31:00,30.3,14.4,29.65,West,276,6.0,19.0,51,0.00,,,0.01,VWS V14.01,2013-02-20 23:31:00,
2013-02-20 18:36:00,30.2,14.3,29.65,SSW,198,3.0,7.0,51,0.00,,,0.01,VWS V14.01,2013-02-20 23:36:00,
2013-02-20 18:41:00,30.0,15.0,29.65,West,275,7.0,7.0,53,0.00,,,0.01,VWS V14.01,2013-02-20 23:41:00,
2013-02-20 18:46:00,29.9,14.4,29.65,WNW,287,2.0,8.0,52,0.00,,,0.01,VWS V14.01,2013-02-20 23:46:00,
2013-02-20 18:51:00,29.7,15.1,29.65,WSW,254,10.0,10.0,54,0.00,,,0.01,VWS V14.01,2013-02-20 23:51:00,
2013-02-20 18:56:00,29.7,14.7,29.65,West,261,8.0,11.0,53,0.00,,,0.01,VWS V14.01,2013-02-20 23:56:00,
2013-02-20 19:00:00,28.7,14.2,29.67,West,276,5.0,11.0,54,0.00,,,0.01,VWS V14.01,2013-02-21 00:00:00,
2013-02-20 19:01:00,29.6,14.1,29.66,WNW,292,4.0,11.0,52,0.00,,,0.01,VWS V14.01,2013-02-21 00:01:00,
2013-02-20 19:06:00,29.6,14.1,29.66,WNW,285,4.0,10.0,52,0.00,,,0.01,VWS V14.01,2013-02-21 00:06:00,
2013-02-20 19:11:00,29.5,13.6,29.66,WNW,300,3.0,10.0,51,0.00,,,0.01,VWS V14.01,2013-02-21 00:11:00,
2013-02-20 19:16:00,29.4,13.1,29.66,ESE,113,4.0,10.0,50,0.00,,,0.01,VWS V14.01,2013-02-21 00:16:00,
2013-02-20 19:21:00,29.3,12.5,29.66,West,280,9.0,17.0,49,0.00,,,0.01,VWS V14.01,2013-02-21 00:21:00,
2013-02-20 19:26:00,29.2,12.4,29.66,West,274,7.0,17.0,49,0.00,,,0.01,VWS V14.01,2013-02-21 00:26:00,
2013-02-20 19:30:00,28.3,13.8,29.68,WNW,292,4.0,14.0,54,0.00,,,0.01,VWS V14.01,2013-02-21 00:30:00,
2013-02-20 19:31:00,29.2,12.4,29.66,WNW,295,4.0,17.0,49,0.00,,,0.01,VWS V14.01,2013-02-21 00:31:00,
2013-02-20 19:36:00,29.1,12.8,29.66,West,273,5.0,8.0,50,0.00,,,0.01,VWS V14.01,2013-02-21 00:36:00,
2013-02-20 19:41:00,28.9,13.1,29.66,West,275,6.0,11.0,51,0.00,,,0.01,VWS V14.01,2013-02-21 00:41:00,
2013-02-20 19:46:00,28.9,13.1,29.66,West,275,6.0,11.0,51,0.00,,,0.01,VWS V14.01,2013-02-21 00:46:00,
2013-02-20 19:51:00,28.8,13.8,29.67,WNW,296,3.0,11.0,53,0.00,,,0.01,VWS V14.01,2013-02-21 00:51:00,
2013-02-20 19:56:00,28.7,14.2,29.67,WNW,284,4.0,11.0,54,0.00,,,0.01,VWS V14.01,2013-02-21 00:56:00,
2013-02-20 20:00:00,28.0,13.9,29.69,WNW,286,5.0,12.0,55,0.00,,,0.01,VWS V14.01,2013-02-21 01:00:00,
2013-02-20 20:01:00,28.7,14.2,29.67,WNW,290,1.0,11.0,54,0.00,,,0.01,VWS V14.01,2013-02-21 01:01:00,
2013-02-20 20:06:00,28.6,14.1,29.67,West,260,4.0,14.0,54,0.00,,,0.01,VWS V14.01,2013-02-21 01:06:00,
2013-02-20 20:11:00,28.6,13.2,29.67,WNW,286,4.0,14.0,52,0.00,,,0.01,VWS V14.01,2013-02-21 01:11:00,
2013-02-20 20:16:00,28.5,13.6,29.68,West,281,3.0,14.0,53,0.00,,,0.01,VWS V14.01,2013-02-21 01:16:00,
2013-02-20 20:21:00,28.4,13.5,29.68,West,275,6.0,14.0,53,0.00,,,0.01,VWS V14.01,2013-02-21 01:21:00,
2013-02-20 20:26:00,28.4,13.9,29.68,WNW,285,2.0,14.0,54,0.00,,,0.01,VWS V14.01,2013-02-21 01:26:00,
2013-02-20 20:30:00,27.9,13.8,29.69,West,274,1.0,13.0,55,0.00,,,0.01,VWS V14.01,2013-02-21 01:30:00,
2013-02-20 20:31:00,28.3,13.8,29.68,WNW,302,4.0,14.0,54,0.00,,,0.01,VWS V14.01,2013-02-21 01:31:00,
2013-02-20 20:36:00,28.2,13.7,29.68,West,279,5.0,10.0,54,0.00,,,0.01,VWS V14.01,2013-02-21 01:36:00,
2013-02-20 20:41:00,28.2,13.7,29.68,WNW,295,3.0,11.0,54,0.00,,,0.01,VWS V14.01,2013-02-21 01:41:00,
2013-02-20 20:46:00,28.2,13.7,29.68,WSW,254,4.0,11.0,54,0.00,,,0.01,VWS V14.01,2013-02-21 01:46:00,
2013-02-20 20:51:00,28.1,13.6,29.68,West,272,5.0,11.0,54,0.00,,,0.01,VWS V14.01,2013-02-21 01:51:00,
2013-02-20 20:56:00,28.0,13.1,29.68,West,275,4.0,12.0,53,0.00,,,0.01,VWS V14.01,2013-02-21 01:56:00,
2013-02-20 21:00:00,27.5,14.3,29.70,West,277,6.0,12.0,57,0.00,,,0.01,VWS V14.01,2013-02-21 02:00:00,
2013-02-20 21:01:00,28.0,13.9,29.68,WNW,294,4.0,12.0,55,0.00,,,0.01,VWS V14.01,2013-02-21 02:01:00,
2013-02-20 21:06:00,28.0,13.9,29.69,West,273,8.0,8.0,55,0.00,,,0.01,VWS V14.01,2013-02-21 02:06:00,
2013-02-20 21:11:00,28.0,13.9,29.69,West,261,3.0,13.0,55,0.00,,,0.01,VWS V14.01,2013-02-21 02:11:00,
2013-02-20 21:16:00,28.0,13.9,29.69,West,262,5.0,13.0,55,0.00,,,0.01,VWS V14.01,2013-02-21 02:16:00,
2013-02-20 21:21:00,28.0,13.5,29.69,West,264,4.0,13.0,54,0.00,,,0.01,VWS V14.01,2013-02-21 02:21:00,
2013-02-20 21:26:00,27.9,13.8,29.69,NW,317,6.0,13.0,55,0.00,,,0.01,VWS V14.01,2013-02-21 02:26:00,
2013-02-20 21:30:00,27.2,14.8,29.71,West,272,6.0,11.0,59,0.00,,,0.01,VWS V14.01,2013-02-21 02:30:00,
2013-02-20 21:31:00,27.9,14.2,29.69,West,263,7.0,13.0,56,0.00,,,0.01,VWS V14.01,2013-02-21 02:31:00,
2013-02-20 21:36:00,27.8,14.2,29.69,WNW,285,5.0,10.0,56,0.00,,,0.01,VWS V14.01,2013-02-21 02:36:00,
2013-02-20 21:41:00,27.8,14.2,29.69,West,273,7.0,10.0,56,0.00,,,0.01,VWS V14.01,2013-02-21 02:41:00,
2013-02-20 21:46:00,27.7,14.1,29.69,West,279,3.0,10.0,56,0.00,,,0.01,VWS V14.01,2013-02-21 02:46:00,
2013-02-20 21:51:00,27.7,14.1,29.69,West,270,3.0,10.0,56,0.00,,,0.01,VWS V14.01,2013-02-21 02:51:00,
2013-02-20 21:56:00,27.6,14.4,29.70,WNW,285,4.0,11.0,57,0.00,,,0.01,VWS V14.01,2013-02-21 02:56:00,
2013-02-20 22:00:00,26.8,14.8,29.72,West,276,1.0,13.0,60,0.00,,,0.01,VWS V14.01,2013-02-21 03:00:00,
2013-02-20 22:01:00,27.6,14.4,29.70,NW,319,5.0,12.0,57,0.00,,,0.01,VWS V14.01,2013-02-21 03:01:00,
2013-02-20 22:06:00,27.5,14.3,29.70,West,279,3.0,9.0,57,0.00,,,0.01,VWS V14.01,2013-02-21 03:06:00,
2013-02-20 22:11:00,27.5,14.7,29.70,WNW,290,5.0,9.0,58,0.00,,,0.01,VWS V14.01,2013-02-21 03:11:00,
2013-02-20 22:16:00,27.5,14.7,29.70,West,273,6.0,11.0,58,0.00,,,0.01,VWS V14.01,2013-02-21 03:16:00,
2013-02-20 22:21:00,27.5,14.7,29.70,West,274,3.0,11.0,58,0.00,,,0.01,VWS V14.01,2013-02-21 03:21:00,
2013-02-20 22:26:00,27.4,15.0,29.70,West,274,2.0,11.0,59,0.00,,,0.01,VWS V14.01,2013-02-21 03:26:00,
2013-02-20 22:30:00,26.4,15.2,29.73,WNW,283,2.0,8.0,62,0.00,,,0.01,VWS V14.01,2013-02-21 03:30:00,
2013-02-20 22:31:00,27.2,14.8,29.71,NW,305,2.0,11.0,59,0.00,,,0.01,VWS V14.01,2013-02-21 03:31:00,
2013-02-20 22:36:00,27.1,14.7,29.71,NW,326,4.0,8.0,59,0.00,,,0.01,VWS V14.01,2013-02-21 03:36:00,
2013-02-20 22:41:00,27.0,14.6,29.71,WNW,303,4.0,8.0,59,0.00,,,0.01,VWS V14.01,2013-02-21 03:41:00,
2013-02-20 22:46:00,26.9,14.5,29.71,West,275,3.0,8.0,59,0.00,,,0.01,VWS V14.01,2013-02-21 03:46:00,
2013-02-20 22:51:00,26.9,14.9,29.71,West,281,2.0,8.0,60,0.00,,,0.01,VWS V14.01,2013-02-21 03:51:00,
2013-02-20 22:56:00,26.8,14.8,29.72,West,268,8.0,13.0,60,0.00,,,0.01,VWS V14.01,2013-02-21 03:56:00,
2013-02-20 23:00:00,26.6,15.4,29.73,West,276,0.0,10.0,62,0.00,,,0.00,VWS V14.01,2013-02-21 04:00:00,
2013-02-20 23:01:00,26.7,14.7,29.72,West,263,5.0,13.0,60,0.00,,,0.01,VWS V14.01,2013-02-21 04:01:00,
2013-02-20 23:06:00,26.7,14.7,29.72,West,269,7.0,7.0,60,0.00,,,0.01,VWS V14.01,2013-02-21 04:06:00,
2013-02-20 23:11:00,26.7,14.7,29.72,West,269,3.0,8.0,60,0.00,,,0.01,VWS V14.01,2013-02-21 04:11:00,
2013-02-20 23:16:00,26.6,15.0,29.72,West,268,5.0,8.0,61,0.00,,,0.01,VWS V14.01,2013-02-21 04:16:00,
2013-02-20 23:21:00,26.6,15.0,29.72,WNW,301,3.0,8.0,61,0.00,,,0.01,VWS V14.01,2013-02-21 04:21:00,
2013-02-20 23:26:00,26.5,15.3,29.73,WNW,299,2.0,8.0,62,0.00,,,0.01,VWS V14.01,2013-02-21 04:26:00,
2013-02-20 23:30:00,26.6,12.6,29.74,SSW,211,7.0,14.0,55,0.00,,,0.00,VWS V14.01,2013-02-21 04:30:00,
2013-02-20 23:31:00,26.4,15.2,29.73,WNW,284,1.0,8.0,62,0.00,,,0.01,VWS V14.01,2013-02-21 04:31:00,
2013-02-20 23:36:00,26.4,15.2,29.73,West,275,2.0,6.0,62,0.00,,,0.01,VWS V14.01,2013-02-21 04:36:00,
2013-02-20 23:41:00,26.5,14.9,29.73,West,273,2.0,10.0,61,0.00,,,0.01,VWS V14.01,2013-02-21 04:41:00,
2013-02-20 23:46:00,26.5,14.9,29.73,WNW,291,6.0,10.0,61,0.00,,,0.01,VWS V14.01,2013-02-21 04:46:00,
2013-02-20 23:51:00,26.6,15.4,29.73,West,277,5.0,10.0,62,0.00,,,0.01,VWS V14.01,2013-02-21 04:51:00,
2013-02-20 23:56:00,26.6,15.4,29.73,WNW,282,5.0,10.0,62,0.00,,,0.01,VWS V14.01,2013-02-21 04:56:00,